Time;durP1;ratioP1;P1;durP2;ratioP2;P2;SDS_P1;SDS_P2;PMS_P1;PMS_P2;Temp;Humidity;BMP_temperature;BMP_pressure;BME280_temperature;BME280_humidity;BME280_pressure;Samples;Min_cycle;Max_cycle;Signal;HPM_P1;HPM_P2
2022/10/01 00:00:12;;;;;;;0.00;0.00;;;;;;;;;;1738260;28;20793;-69
2022/10/01 00:01:06;;;;;;;0.00;0.00;;;;;;;;;;1739129;28;20545;-70
2022/10/01 00:01:59;;;;;;;0.00;0.00;;;;;;;;;;1738560;28;20519;-70
2022/10/01 00:02:50;;;;;;;0.00;0.00;;;;;;;;;;1738233;28;20214;-70
2022/10/01 00:03:42;;;;;;;0.00;0.00;;;;;;;;;;1739037;28;20226;-70
2022/10/01 00:04:35;;;;;;;0.00;0.00;;;;;;;;;;1737341;28;20290;-70
2022/10/01 00:05:27;;;;;;;0.00;0.00;;;;;;;;;;1739648;28;20261;-70
2022/10/01 00:06:19;;;;;;;0.00;0.00;;;;;;;;;;1737948;28;20636;-70
2022/10/01 00:07:13;;;;;;;0.00;0.00;;;;;;;;;;1738960;28;20213;-70
2022/10/01 00:08:05;;;;;;;0.00;0.00;;;;;;;;;;1737623;28;20870;-70
2022/10/01 00:08:58;;;;;;;0.00;0.00;;;;;;;;;;1734724;28;20199;-70
2022/10/01 00:09:49;;;;;;;0.00;0.00;;;;;;;;;;1735373;28;20238;-70
2022/10/01 00:10:41;;;;;;;0.00;0.00;;;;;;;;;;1739454;28;20612;-70
2022/10/01 00:11:33;;;;;;;0.00;0.00;;;;;;;;;;1738178;28;20207;-69
2022/10/01 00:12:25;;;;;;;0.00;0.00;;;;;;;;;;1738143;28;20628;-69
2022/10/01 00:13:16;;;;;;;0.00;0.00;;;;;;;;;;1737489;28;20736;-69
2022/10/01 00:14:08;;;;;;;0.00;0.00;;;;;;;;;;1738555;28;20214;-69
2022/10/01 00:14:59;;;;;;;0.00;0.00;;;;;;;;;;1737339;28;20246;-69
2022/10/01 00:15:52;;;;;;;0.00;0.00;;;;;;;;;;1738941;28;20230;-69
2022/10/01 00:16:44;;;;;;;0.00;0.00;;;;;;;;;;1737793;28;20207;-70
2022/10/01 00:17:35;;;;;;;0.00;0.00;;;;;;;;;;1739294;28;20199;-70
2022/10/01 00:18:28;;;;;;;0.00;0.00;;;;;;;;;;1737708;28;20195;-70
2022/10/01 00:19:20;;;;;;;0.00;0.00;;;;;;;;;;1739437;28;20214;-70
2022/10/01 00:20:12;;;;;;;0.00;0.00;;;;;;;;;;1738118;28;20272;-70
2022/10/01 00:21:07;;;;;;;0.00;0.00;;;;;;;;;;1738220;28;20610;-69
2022/10/01 00:21:59;;;;;;;0.00;0.00;;;;;;;;;;1737916;28;20226;-69
2022/10/01 00:22:51;;;;;;;0.00;0.00;;;;;;;;;;1737964;28;20586;-69
2022/10/01 00:23:43;;;;;;;0.00;0.00;;;;;;;;;;1738452;28;20195;-69
2022/10/01 00:24:36;;;;;;;0.00;0.00;;;;;;;;;;1736816;28;20505;-69
2022/10/01 00:25:29;;;;;;;0.00;0.00;;;;;;;;;;1739132;28;20247;-69
2022/10/01 00:26:21;;;;;;;0.00;0.00;;;;;;;;;;1737077;28;20235;-70
2022/10/01 00:27:13;;;;;;;0.00;0.00;;;;;;;;;;1738886;28;20214;-70
2022/10/01 00:28:04;;;;;;;0.00;0.00;;;;;;;;;;1737352;28;20589;-70
2022/10/01 00:28:57;;;;;;;0.00;0.00;;;;;;;;;;1739301;28;20229;-70
2022/10/01 00:29:48;;;;;;;0.00;0.00;;;;;;;;;;1738050;28;20249;-70
2022/10/01 00:30:46;;;;;;;0.00;0.00;;;;;;;;;;1739990;28;20810;-70
2022/10/01 00:31:37;;;;;;;0.00;0.00;;;;;;;;;;1737451;28;20644;-70
2022/10/01 00:32:31;;;;;;;0.00;0.00;;;;;;;;;;1738727;28;20203;-70
2022/10/01 00:33:24;;;;;;;0.00;0.00;;;;;;;;;;1738645;28;20340;-70
2022/10/01 00:34:15;;;;;;;0.00;0.00;;;;;;;;;;1732524;28;20211;-70
2022/10/01 00:35:08;;;;;;;0.00;0.00;;;;;;;;;;1738520;28;20300;-70
2022/10/01 00:35:59;;;;;;;0.00;0.00;;;;;;;;;;1739656;28;20202;-68
2022/10/01 00:36:51;;;;;;;0.00;0.00;;;;;;;;;;1738619;28;20221;-69
2022/10/01 00:37:42;;;;;;;0.00;0.00;;;;;;;;;;1739970;28;20283;-69
2022/10/01 00:38:33;;;;;;;0.00;0.00;;;;;;;;;;1738436;28;20293;-69
2022/10/01 00:39:25;;;;;;;0.00;0.00;;;;;;;;;;1739529;28;20242;-69
2022/10/01 00:40:18;;;;;;;0.00;0.00;;;;;;;;;;1739619;28;20383;-69
2022/10/01 00:41:10;;;;;;;0.00;0.00;;;;;;;;;;1739146;28;20236;-69
2022/10/01 00:42:01;;;;;;;0.00;0.00;;;;;;;;;;1738582;28;20249;-69
2022/10/01 00:42:53;;;;;;;0.00;0.00;;;;;;;;;;1739017;28;20416;-69
2022/10/01 00:43:45;;;;;;;0.00;0.00;;;;;;;;;;1739617;28;20214;-69
2022/10/01 00:44:37;;;;;;;0.00;0.00;;;;;;;;;;1738095;28;20226;-69
2022/10/01 00:45:29;;;;;;;0.00;0.00;;;;;;;;;;1740435;28;20234;-69
2022/10/01 00:46:23;;;;;;;0.00;0.00;;;;;;;;;;1738240;28;20217;-69
2022/10/01 00:47:19;;;;;;;0.00;0.00;;;;;;;;;;1739779;28;20545;-69
2022/10/01 00:48:12;;;;;;;0.00;0.00;;;;;;;;;;1738129;28;20685;-69
2022/10/01 00:49:06;;;;;;;0.00;0.00;;;;;;;;;;1739577;28;20545;-69
2022/10/01 00:50:04;;;;;;;0.00;0.00;;;;;;;;;;1738408;28;20203;-69
2022/10/01 00:50:56;;;;;;;0.00;0.00;;;;;;;;;;1739557;28;20218;-69
2022/10/01 00:51:50;;;;;;;0.00;0.00;;;;;;;;;;1738541;28;20199;-69
2022/10/01 00:52:42;;;;;;;0.00;0.00;;;;;;;;;;1739140;28;20302;-69
2022/10/01 00:53:34;;;;;;;0.00;0.00;;;;;;;;;;1739304;28;20209;-69
2022/10/01 00:54:30;;;;;;;0.00;0.00;;;;;;;;;;1738637;28;20266;-69
2022/10/01 00:55:24;;;;;;;0.00;0.00;;;;;;;;;;1739757;28;20210;-69
2022/10/01 00:56:15;;;;;;;0.00;0.00;;;;;;;;;;1738361;28;20214;-70
2022/10/01 00:57:07;;;;;;;0.00;0.00;;;;;;;;;;1739249;28;20692;-70
2022/10/01 00:57:58;;;;;;;0.00;0.00;;;;;;;;;;1738589;28;20362;-70
2022/10/01 00:58:54;;;;;;;0.00;0.00;;;;;;;;;;1739197;28;20393;-69
2022/10/01 00:59:45;;;;;;;0.00;0.00;;;;;;;;;;1738770;28;20280;-70
2022/10/01 01:00:38;;;;;;;0.00;0.00;;;;;;;;;;1739783;28;20209;-70
2022/10/01 01:01:29;;;;;;;0.00;0.00;;;;;;;;;;1738586;28;20282;-69
2022/10/01 01:02:21;;;;;;;0.00;0.00;;;;;;;;;;1739138;28;20199;-69
2022/10/01 01:03:14;;;;;;;0.00;0.00;;;;;;;;;;1738407;28;20318;-69
2022/10/01 01:04:15;;;;;;;0.00;0.00;;;;;;;;;;1739508;28;20218;-69
2022/10/01 01:05:07;;;;;;;0.00;0.00;;;;;;;;;;1738468;28;20211;-69
2022/10/01 01:05:59;;;;;;;0.00;0.00;;;;;;;;;;1739758;28;20202;-70
2022/10/01 01:06:54;;;;;;;0.00;0.00;;;;;;;;;;1738488;28;20361;-70
2022/10/01 01:07:47;;;;;;;0.00;0.00;;;;;;;;;;1739033;28;20610;-70
2022/10/01 01:08:38;;;;;;;0.00;0.00;;;;;;;;;;1736518;28;20234;-70
2022/10/01 01:09:32;;;;;;;0.00;0.00;;;;;;;;;;1732638;28;20526;-70
2022/10/01 01:10:28;;;;;;;0.00;0.00;;;;;;;;;;1739728;28;20266;-70
2022/10/01 01:11:25;;;;;;;0.00;0.00;;;;;;;;;;1738073;28;20600;-69
2022/10/01 01:12:25;;;;;;;0.00;0.00;;;;;;;;;;1739313;28;20684;-69
2022/10/01 01:13:22;;;;;;;0.00;0.00;;;;;;;;;;1738310;28;20659;-69
2022/10/01 01:14:18;;;;;;;0.00;0.00;;;;;;;;;;1739618;28;20684;-69
2022/10/01 01:15:13;;;;;;;0.00;0.00;;;;;;;;;;1738852;28;20501;-69
2022/10/01 01:16:06;;;;;;;0.00;0.00;;;;;;;;;;1739408;28;20203;-69
2022/10/01 01:17:00;;;;;;;0.00;0.00;;;;;;;;;;1739066;28;20330;-69
2022/10/01 01:17:54;;;;;;;0.00;0.00;;;;;;;;;;1738246;28;20219;-69
2022/10/01 01:18:51;;;;;;;0.00;0.00;;;;;;;;;;1738998;28;20214;-69
2022/10/01 01:19:51;;;;;;;0.00;0.00;;;;;;;;;;1738493;28;20187;-69
2022/10/01 01:21:01;;;;;;;0.00;0.00;;;;;;;;;;1739896;28;20482;-69
2022/10/01 01:21:55;;;;;;;0.00;0.00;;;;;;;;;;1738087;28;20211;-70
2022/10/01 01:22:51;;;;;;;0.00;0.00;;;;;;;;;;1739290;28;20218;-70
2022/10/01 01:24:03;;;;;;;0.00;0.00;;;;;;;;;;1738872;28;20498;-70
2022/10/01 01:24:59;;;;;;;0.00;0.00;;;;;;;;;;1738908;28;20204;-70
2022/10/01 01:25:53;;;;;;;0.00;0.00;;;;;;;;;;1740739;28;20226;-70
2022/10/01 01:26:52;;;;;;;0.00;0.00;;;;;;;;;;1738409;28;20199;-70
2022/10/01 01:27:45;;;;;;;0.00;0.00;;;;;;;;;;1740406;28;20195;-70
2022/10/01 01:28:40;;;;;;;0.00;0.00;;;;;;;;;;1738685;28;20539;-70
2022/10/01 01:29:34;;;;;;;0.00;0.00;;;;;;;;;;1738714;28;20660;-70
2022/10/01 01:30:27;;;;;;;0.00;0.00;;;;;;;;;;1739588;28;20317;-70
2022/10/01 01:31:32;;;;;;;0.00;0.00;;;;;;;;;;1738015;28;20207;-70
2022/10/01 01:32:27;;;;;;;0.00;0.00;;;;;;;;;;1738000;28;20673;-70
2022/10/01 01:33:20;;;;;;;0.00;0.00;;;;;;;;;;1735992;28;20744;-70
2022/10/01 01:34:13;;;;;;;0.00;0.00;;;;;;;;;;1738968;28;20199;-70
2022/10/01 01:35:06;;;;;;;0.00;0.00;;;;;;;;;;1737845;28;20326;-70
2022/10/01 01:36:00;;;;;;;0.00;0.00;;;;;;;;;;1739621;28;20203;-69
2022/10/01 01:36:53;;;;;;;0.00;0.00;;;;;;;;;;1735182;28;20507;-69
2022/10/01 01:37:50;;;;;;;0.00;0.00;;;;;;;;;;1739348;28;20398;-69
2022/10/01 01:38:42;;;;;;;0.00;0.00;;;;;;;;;;1738111;28;20254;-69
2022/10/01 01:39:34;;;;;;;0.00;0.00;;;;;;;;;;1738554;28;20533;-69
2022/10/01 01:40:26;;;;;;;0.00;0.00;;;;;;;;;;1739144;28;20199;-68
2022/10/01 01:41:19;;;;;;;0.00;0.00;;;;;;;;;;1738091;28;20231;-70
2022/10/01 01:42:14;;;;;;;0.00;0.00;;;;;;;;;;1738971;28;20538;-70
2022/10/01 01:43:07;;;;;;;0.00;0.00;;;;;;;;;;1737770;28;20227;-70
2022/10/01 01:44:02;;;;;;;0.00;0.00;;;;;;;;;;1739903;28;20268;-70
2022/10/01 01:44:57;;;;;;;0.00;0.00;;;;;;;;;;1737952;28;20618;-70
2022/10/01 01:45:50;;;;;;;0.00;0.00;;;;;;;;;;1740783;28;20302;-70
2022/10/01 01:46:43;;;;;;;0.00;0.00;;;;;;;;;;1737961;28;20552;-70
2022/10/01 01:47:36;;;;;;;0.00;0.00;;;;;;;;;;1740293;28;20286;-70
2022/10/01 01:48:28;;;;;;;0.00;0.00;;;;;;;;;;1737843;28;20230;-70
2022/10/01 01:49:20;;;;;;;0.00;0.00;;;;;;;;;;1739219;28;20259;-70
2022/10/01 01:50:12;;;;;;;0.00;0.00;;;;;;;;;;1738184;28;20218;-70
2022/10/01 01:51:07;;;;;;;0.00;0.00;;;;;;;;;;1738787;28;20248;-69
2022/10/01 01:52:01;;;;;;;0.00;0.00;;;;;;;;;;1738986;28;20656;-70
2022/10/01 01:52:53;;;;;;;0.00;0.00;;;;;;;;;;1737803;28;20538;-69
2022/10/01 01:53:44;;;;;;;0.00;0.00;;;;;;;;;;1738947;28;20246;-69
2022/10/01 01:54:37;;;;;;;0.00;0.00;;;;;;;;;;1737691;28;20199;-69
2022/10/01 01:55:29;;;;;;;0.00;0.00;;;;;;;;;;1732654;28;20199;-69
2022/10/01 01:56:22;;;;;;;0.00;0.00;;;;;;;;;;1733622;28;20621;-68
2022/10/01 01:57:13;;;;;;;0.00;0.00;;;;;;;;;;1738984;28;20518;-68
2022/10/01 01:58:07;;;;;;;0.00;0.00;;;;;;;;;;1737901;28;20235;-68
2022/10/01 01:58:59;;;;;;;0.00;0.00;;;;;;;;;;1738920;28;20298;-68
2022/10/01 01:59:51;;;;;;;0.00;0.00;;;;;;;;;;1737740;28;20535;-68
2022/10/01 02:00:43;;;;;;;0.00;0.00;;;;;;;;;;1739564;28;20286;-68
2022/10/01 02:01:36;;;;;;;0.00;0.00;;;;;;;;;;1737698;28;20199;-68
2022/10/01 02:02:31;;;;;;;0.00;0.00;;;;;;;;;;1739078;28;20343;-68
2022/10/01 02:03:25;;;;;;;0.00;0.00;;;;;;;;;;1737586;28;20577;-68
2022/10/01 02:04:20;;;;;;;0.00;0.00;;;;;;;;;;1739273;28;20206;-68
2022/10/01 02:05:14;;;;;;;0.00;0.00;;;;;;;;;;1737927;28;20230;-68
2022/10/01 02:06:12;;;;;;;0.00;0.00;;;;;;;;;;1739111;28;20346;-69
2022/10/01 02:07:19;;;;;;;0.00;0.00;;;;;;;;;;1736470;28;20203;-69
2022/10/01 02:08:17;;;;;;;0.00;0.00;;;;;;;;;;1737716;28;20200;-69
2022/10/01 02:09:14;;;;;;;0.00;0.00;;;;;;;;;;1733303;28;20226;-69
2022/10/01 02:10:11;;;;;;;0.00;0.00;;;;;;;;;;1736780;28;20310;-69
2022/10/01 02:11:08;;;;;;;0.00;0.00;;;;;;;;;;1739060;28;20629;-68
2022/10/01 02:12:05;;;;;;;0.00;0.00;;;;;;;;;;1738911;28;20633;-68
2022/10/01 02:13:07;;;;;;;0.00;0.00;;;;;;;;;;1737249;28;20196;-68
2022/10/01 02:14:04;;;;;;;0.00;0.00;;;;;;;;;;1738999;28;20223;-68
2022/10/01 02:14:59;;;;;;;0.00;0.00;;;;;;;;;;1737565;28;20275;-68
2022/10/01 02:15:58;;;;;;;0.00;0.00;;;;;;;;;;1739651;28;20670;-68
2022/10/01 02:16:52;;;;;;;0.00;0.00;;;;;;;;;;1738078;28;20617;-68
2022/10/01 02:17:50;;;;;;;0.00;0.00;;;;;;;;;;1739994;28;20222;-68
2022/10/01 02:18:47;;;;;;;0.00;0.00;;;;;;;;;;1738987;28;20573;-68
2022/10/01 02:19:43;;;;;;;0.00;0.00;;;;;;;;;;1738514;28;20184;-68
2022/10/01 02:20:36;;;;;;;0.00;0.00;;;;;;;;;;1740038;28;20207;-68
2022/10/01 02:21:31;;;;;;;0.00;0.00;;;;;;;;;;1738380;28;20665;-69
2022/10/01 02:22:24;;;;;;;0.00;0.00;;;;;;;;;;1739431;28;20763;-69
2022/10/01 02:23:18;;;;;;;0.00;0.00;;;;;;;;;;1738147;28;20215;-69
2022/10/01 02:24:14;;;;;;;0.00;0.00;;;;;;;;;;1739370;28;20211;-69
2022/10/01 02:25:07;;;;;;;0.00;0.00;;;;;;;;;;1737886;28;20195;-69
2022/10/01 02:26:01;;;;;;;0.00;0.00;;;;;;;;;;1739271;28;20210;-68
2022/10/01 02:26:54;;;;;;;0.00;0.00;;;;;;;;;;1737226;28;20238;-68
2022/10/01 02:27:48;;;;;;;0.00;0.00;;;;;;;;;;1739154;28;20277;-67
2022/10/01 02:28:41;;;;;;;0.00;0.00;;;;;;;;;;1738327;28;20205;-68
2022/10/01 02:29:34;;;;;;;0.00;0.00;;;;;;;;;;1738228;28;20234;-68
2022/10/01 02:30:28;;;;;;;0.00;0.00;;;;;;;;;;1735672;28;20203;-68
2022/10/01 02:31:19;;;;;;;0.00;0.00;;;;;;;;;;1732866;28;20273;-68
2022/10/01 02:32:11;;;;;;;0.00;0.00;;;;;;;;;;1736596;28;20545;-68
2022/10/01 02:33:05;;;;;;;0.00;0.00;;;;;;;;;;1736934;28;20202;-68
2022/10/01 02:33:58;;;;;;;0.00;0.00;;;;;;;;;;1739071;28;20234;-68
2022/10/01 02:34:51;;;;;;;0.00;0.00;;;;;;;;;;1736904;28;20237;-68
2022/10/01 02:35:43;;;;;;;0.00;0.00;;;;;;;;;;1739700;28;20557;-68
2022/10/01 02:36:37;;;;;;;0.00;0.00;;;;;;;;;;1735781;28;20633;-68
2022/10/01 02:37:28;;;;;;;0.00;0.00;;;;;;;;;;1738476;28;20580;-68
2022/10/01 02:38:22;;;;;;;0.00;0.00;;;;;;;;;;1737107;28;20226;-68
2022/10/01 02:39:14;;;;;;;0.00;0.00;;;;;;;;;;1738223;28;20231;-67
2022/10/01 02:40:08;;;;;;;0.00;0.00;;;;;;;;;;1737548;28;20624;-68
2022/10/01 02:41:01;;;;;;;0.00;0.00;;;;;;;;;;1734033;28;20631;-68
2022/10/01 02:41:54;;;;;;;0.00;0.00;;;;;;;;;;1737270;28;20202;-68
2022/10/01 02:42:48;;;;;;;0.00;0.00;;;;;;;;;;1738555;28;20223;-68
2022/10/01 02:43:44;;;;;;;0.00;0.00;;;;;;;;;;1738253;28;20199;-68
2022/10/01 02:44:39;;;;;;;0.00;0.00;;;;;;;;;;1737613;28;20632;-69
2022/10/01 02:45:32;;;;;;;0.03;0.03;;;;;;;;;;1739193;28;20310;-69
2022/10/01 02:46:27;;;;;;;0.00;0.00;;;;;;;;;;1737886;28;20235;-68
2022/10/01 02:47:22;;;;;;;0.00;0.00;;;;;;;;;;1738431;28;20506;-68
2022/10/01 02:48:16;;;;;;;0.00;0.00;;;;;;;;;;1737965;28;20267;-67
2022/10/01 02:49:10;;;;;;;0.00;0.00;;;;;;;;;;1738380;28;20199;-67
2022/10/01 02:50:03;;;;;;;0.00;0.00;;;;;;;;;;1738155;28;20214;-68
2022/10/01 02:50:58;;;;;;;0.00;0.00;;;;;;;;;;1738740;28;20203;-68
2022/10/01 02:51:54;;;;;;;0.00;0.00;;;;;;;;;;1737521;28;20273;-68
2022/10/01 02:52:48;;;;;;;0.00;0.00;;;;;;;;;;1738067;28;20191;-68
2022/10/01 02:53:41;;;;;;;0.00;0.00;;;;;;;;;;1737788;28;20637;-69
2022/10/01 02:54:36;;;;;;;0.00;0.00;;;;;;;;;;1737996;28;20264;-68
2022/10/01 02:55:28;;;;;;;0.00;0.00;;;;;;;;;;1739161;28;20605;-69
2022/10/01 02:57:28;;;;;;;0.00;0.00;;;;;;;;;;1738157;28;20191;-68
2022/10/01 02:58:19;;;;;;;0.00;0.00;;;;;;;;;;1737814;28;20214;-67
2022/10/01 02:59:10;;;;;;;0.00;0.00;;;;;;;;;;1738734;28;20209;-68
2022/10/01 03:00:08;;;;;;;0.00;0.00;;;;;;;;;;1737979;28;20590;-67
2022/10/01 03:01:00;;;;;;;0.00;0.00;;;;;;;;;;1738827;28;20521;-69
2022/10/01 03:01:51;;;;;;;0.00;0.00;;;;;;;;;;1738254;28;20245;-69
2022/10/01 03:02:43;;;;;;;0.00;0.00;;;;;;;;;;1738438;28;20207;-68
2022/10/01 03:03:34;;;;;;;0.00;0.00;;;;;;;;;;1738178;28;20234;-68
2022/10/01 03:04:26;;;;;;;0.00;0.00;;;;;;;;;;1738213;28;20215;-69
2022/10/01 03:05:17;;;;;;;0.00;0.00;;;;;;;;;;1738589;28;20237;-68
2022/10/01 03:06:09;;;;;;;0.00;0.00;;;;;;;;;;1737851;28;20230;-68
2022/10/01 03:07:02;;;;;;;0.00;0.00;;;;;;;;;;1738395;28;20257;-69
2022/10/01 03:07:54;;;;;;;0.00;0.00;;;;;;;;;;1737938;28;20688;-68
2022/10/01 03:08:45;;;;;;;0.00;0.00;;;;;;;;;;1739402;28;20302;-69
2022/10/01 03:09:36;;;;;;;0.00;0.00;;;;;;;;;;1738929;28;20495;-69
2022/10/01 03:10:28;;;;;;;0.00;0.00;;;;;;;;;;1739856;28;20218;-68
2022/10/01 03:11:20;;;;;;;0.00;0.00;;;;;;;;;;1737928;28;20713;-68
2022/10/01 03:12:12;;;;;;;0.00;0.00;;;;;;;;;;1736665;28;20683;-68
2022/10/01 03:13:05;;;;;;;0.00;0.00;;;;;;;;;;1736818;28;20569;-68
2022/10/01 03:13:57;;;;;;;0.00;0.00;;;;;;;;;;1738926;28;20287;-68
2022/10/01 03:14:48;;;;;;;0.00;0.00;;;;;;;;;;1737390;28;20217;-68
2022/10/01 03:15:42;;;;;;;0.00;0.00;;;;;;;;;;1739544;28;20230;-68
2022/10/01 03:16:33;;;;;;;0.00;0.00;;;;;;;;;;1737526;28;20608;-68
2022/10/01 03:17:25;;;;;;;0.00;0.00;;;;;;;;;;1738807;28;20242;-69
2022/10/01 03:18:16;;;;;;;0.00;0.00;;;;;;;;;;1737794;28;20322;-69
2022/10/01 03:19:07;;;;;;;0.00;0.00;;;;;;;;;;1738587;28;20214;-69
2022/10/01 03:19:59;;;;;;;0.00;0.00;;;;;;;;;;1738251;28;20199;-69
2022/10/01 03:20:50;;;;;;;0.00;0.00;;;;;;;;;;1738885;28;20456;-69
2022/10/01 03:21:42;;;;;;;0.00;0.00;;;;;;;;;;1737237;28;20244;-68
2022/10/01 03:22:33;;;;;;;0.00;0.00;;;;;;;;;;1738470;28;20388;-68
2022/10/01 03:23:25;;;;;;;0.00;0.00;;;;;;;;;;1737369;28;20206;-68
2022/10/01 03:24:16;;;;;;;0.00;0.00;;;;;;;;;;1739019;28;20311;-68
2022/10/01 03:25:09;;;;;;;0.00;0.00;;;;;;;;;;1737492;28;20217;-68
2022/10/01 03:26:00;;;;;;;0.00;0.00;;;;;;;;;;1738965;28;20245;-69
2022/10/01 03:26:52;;;;;;;0.00;0.00;;;;;;;;;;1736988;28;20214;-69
2022/10/01 03:27:45;;;;;;;0.00;0.00;;;;;;;;;;1738796;28;20666;-69
2022/10/01 03:28:37;;;;;;;0.00;0.00;;;;;;;;;;1737373;28;20202;-69
2022/10/01 03:29:28;;;;;;;0.00;0.00;;;;;;;;;;1737800;28;20538;-69
2022/10/01 03:30:21;;;;;;;0.00;0.00;;;;;;;;;;1738994;28;20202;-69
2022/10/01 03:31:13;;;;;;;0.00;0.00;;;;;;;;;;1737504;28;20294;-68
2022/10/01 03:32:05;;;;;;;0.00;0.00;;;;;;;;;;1738483;28;20620;-68
2022/10/01 03:32:56;;;;;;;0.00;0.00;;;;;;;;;;1736664;28;20234;-68
2022/10/01 03:33:48;;;;;;;0.00;0.00;;;;;;;;;;1738644;28;20285;-68
2022/10/01 03:34:39;;;;;;;0.00;0.00;;;;;;;;;;1738071;28;20280;-68
2022/10/01 03:35:31;;;;;;;0.00;0.00;;;;;;;;;;1738934;28;20210;-68
2022/10/01 03:36:24;;;;;;;0.00;0.00;;;;;;;;;;1737391;28;20565;-68
2022/10/01 03:37:15;;;;;;;0.00;0.00;;;;;;;;;;1738282;28;20267;-68
2022/10/01 03:38:07;;;;;;;0.00;0.00;;;;;;;;;;1736093;28;20235;-68
2022/10/01 03:38:58;;;;;;;0.00;0.00;;;;;;;;;;1731489;28;20300;-68
2022/10/01 03:39:50;;;;;;;0.00;0.00;;;;;;;;;;1731141;28;20215;-68
2022/10/01 03:40:41;;;;;;;0.00;0.00;;;;;;;;;;1732227;28;20230;-68
2022/10/01 03:41:33;;;;;;;0.00;0.00;;;;;;;;;;1730300;28;20286;-68
2022/10/01 03:42:24;;;;;;;0.00;0.00;;;;;;;;;;1730552;28;20232;-68
2022/10/01 03:43:16;;;;;;;0.00;0.00;;;;;;;;;;1730642;28;20569;-68
2022/10/01 03:44:07;;;;;;;0.00;0.00;;;;;;;;;;1726774;28;20283;-68
2022/10/01 03:44:59;;;;;;;0.00;0.00;;;;;;;;;;1729249;28;20210;-68
2022/10/01 03:45:50;;;;;;;0.00;0.00;;;;;;;;;;1732673;28;20254;-67
2022/10/01 03:46:44;;;;;;;0.00;0.00;;;;;;;;;;1731688;28;20235;-69
2022/10/01 03:47:35;;;;;;;0.00;0.00;;;;;;;;;;1731023;28;20680;-69
2022/10/01 03:48:27;;;;;;;0.00;0.00;;;;;;;;;;1730358;28;20207;-69
2022/10/01 03:49:18;;;;;;;0.00;0.00;;;;;;;;;;1731362;28;20254;-69
2022/10/01 03:50:10;;;;;;;0.00;0.00;;;;;;;;;;1731097;28;20679;-69
2022/10/01 03:51:02;;;;;;;0.00;0.00;;;;;;;;;;1731624;28;20434;-69
2022/10/01 03:51:54;;;;;;;0.00;0.00;;;;;;;;;;1730990;28;20227;-69
2022/10/01 03:52:45;;;;;;;0.00;0.00;;;;;;;;;;1731700;28;20258;-69
2022/10/01 03:53:38;;;;;;;0.00;0.00;;;;;;;;;;1731426;28;20203;-69
2022/10/01 03:54:30;;;;;;;0.00;0.00;;;;;;;;;;1731514;28;20269;-69
2022/10/01 03:55:24;;;;;;;0.00;0.00;;;;;;;;;;1731794;28;20276;-69
2022/10/01 03:56:15;;;;;;;0.00;0.00;;;;;;;;;;1731304;28;20684;-69
2022/10/01 03:57:07;;;;;;;0.00;0.00;;;;;;;;;;1731447;28;20412;-69
2022/10/01 03:57:58;;;;;;;0.00;0.00;;;;;;;;;;1731265;28;20230;-69
2022/10/01 03:58:50;;;;;;;0.00;0.00;;;;;;;;;;1731526;28;20230;-68
2022/10/01 03:59:42;;;;;;;0.00;0.00;;;;;;;;;;1731181;28;20254;-69
2022/10/01 04:00:33;;;;;;;0.00;0.00;;;;;;;;;;1731890;28;20203;-69
2022/10/01 04:01:25;;;;;;;0.00;0.00;;;;;;;;;;1730804;28;20826;-68
2022/10/01 04:02:18;;;;;;;0.00;0.00;;;;;;;;;;1731388;28;20211;-67
2022/10/01 04:03:11;;;;;;;0.00;0.00;;;;;;;;;;1730697;28;20277;-67
2022/10/01 04:04:02;;;;;;;0.00;0.00;;;;;;;;;;1732095;28;20243;-67
2022/10/01 04:04:54;;;;;;;0.00;0.00;;;;;;;;;;1732308;28;20218;-67
2022/10/01 04:05:46;;;;;;;0.00;0.00;;;;;;;;;;1731161;28;20319;-67
2022/10/01 04:06:38;;;;;;;0.00;0.00;;;;;;;;;;1729017;28;20255;-67
2022/10/01 04:07:29;;;;;;;0.00;0.00;;;;;;;;;;1733043;28;20625;-67
2022/10/01 04:08:21;;;;;;;0.00;0.00;;;;;;;;;;1732452;28;20234;-67
2022/10/01 04:09:12;;;;;;;0.00;0.00;;;;;;;;;;1732768;28;20298;-67
2022/10/01 04:10:08;;;;;;;0.00;0.00;;;;;;;;;;1733042;28;20564;-67
2022/10/01 04:10:59;;;;;;;0.00;0.00;;;;;;;;;;1732500;28;20287;-68
2022/10/01 04:11:51;;;;;;;0.00;0.00;;;;;;;;;;1732576;28;20235;-67
2022/10/01 04:12:43;;;;;;;0.00;0.00;;;;;;;;;;1733704;28;20242;-67
2022/10/01 04:13:34;;;;;;;0.00;0.00;;;;;;;;;;1733192;28;20222;-67
2022/10/01 04:14:26;;;;;;;0.00;0.00;;;;;;;;;;1733894;28;20235;-67
2022/10/01 04:15:17;;;;;;;0.00;0.00;;;;;;;;;;1732930;28;20250;-67
2022/10/01 04:16:09;;;;;;;0.00;0.00;;;;;;;;;;1732953;28;20747;-67
2022/10/01 04:17:00;;;;;;;0.00;0.00;;;;;;;;;;1731659;28;20211;-67
2022/10/01 04:17:54;;;;;;;0.00;0.00;;;;;;;;;;1732261;28;20266;-67
2022/10/01 04:18:45;;;;;;;0.00;0.00;;;;;;;;;;1732705;28;20295;-67
2022/10/01 04:19:37;;;;;;;0.00;0.00;;;;;;;;;;1732521;28;20200;-67
2022/10/01 04:20:28;;;;;;;0.00;0.00;;;;;;;;;;1733557;28;20254;-67
2022/10/01 04:21:20;;;;;;;0.00;0.00;;;;;;;;;;1731974;28;20226;-68
2022/10/01 04:22:11;;;;;;;0.00;0.00;;;;;;;;;;1732870;28;20579;-68
2022/10/01 04:23:03;;;;;;;0.00;0.00;;;;;;;;;;1732115;28;20261;-68
2022/10/01 04:23:55;;;;;;;0.00;0.00;;;;;;;;;;1733108;28;20578;-68
2022/10/01 04:24:47;;;;;;;0.00;0.00;;;;;;;;;;1732719;28;20629;-68
2022/10/01 04:25:38;;;;;;;0.00;0.00;;;;;;;;;;1733125;28;20672;-68
2022/10/01 04:26:30;;;;;;;0.00;0.00;;;;;;;;;;1732827;28;20199;-67
2022/10/01 04:27:21;;;;;;;0.00;0.00;;;;;;;;;;1732583;28;20363;-67
2022/10/01 04:28:13;;;;;;;0.00;0.00;;;;;;;;;;1733410;28;20682;-67
2022/10/01 04:29:04;;;;;;;0.00;0.00;;;;;;;;;;1727977;28;20621;-67
2022/10/01 04:29:56;;;;;;;0.00;0.00;;;;;;;;;;1730629;28;20565;-67
2022/10/01 04:30:48;;;;;;;0.00;0.00;;;;;;;;;;1734176;28;20645;-67
2022/10/01 04:31:40;;;;;;;0.00;0.00;;;;;;;;;;1731051;28;20234;-67
2022/10/01 04:32:31;;;;;;;0.00;0.00;;;;;;;;;;1732695;28;20258;-67
2022/10/01 04:33:24;;;;;;;0.00;0.00;;;;;;;;;;1731886;28;20195;-67
2022/10/01 04:34:15;;;;;;;0.00;0.00;;;;;;;;;;1726175;28;20232;-67
2022/10/01 04:35:10;;;;;;;0.00;0.00;;;;;;;;;;1731219;28;20207;-67
2022/10/01 04:36:01;;;;;;;0.00;0.00;;;;;;;;;;1733008;28;20215;-68
2022/10/01 04:36:53;;;;;;;0.00;0.00;;;;;;;;;;1732358;28;20199;-68
2022/10/01 04:37:44;;;;;;;0.00;0.00;;;;;;;;;;1732664;28;20315;-68
2022/10/01 04:38:36;;;;;;;0.00;0.00;;;;;;;;;;1737905;28;20219;-68
2022/10/01 04:39:28;;;;;;;0.00;0.00;;;;;;;;;;1739301;28;20199;-68
2022/10/01 04:40:20;;;;;;;0.00;0.00;;;;;;;;;;1739330;28;20597;-68
2022/10/01 04:41:12;;;;;;;0.00;0.00;;;;;;;;;;1729491;28;20270;-68
2022/10/01 04:42:04;;;;;;;0.00;0.00;;;;;;;;;;1736492;28;20274;-68
2022/10/01 04:42:56;;;;;;;0.00;0.00;;;;;;;;;;1738627;28;20330;-68
2022/10/01 04:43:48;;;;;;;0.00;0.00;;;;;;;;;;1739664;28;20295;-68
2022/10/01 04:44:39;;;;;;;0.00;0.00;;;;;;;;;;1738406;28;20203;-68
2022/10/01 04:45:31;;;;;;;0.00;0.00;;;;;;;;;;1740093;28;20195;-68
2022/10/01 04:46:22;;;;;;;0.00;0.00;;;;;;;;;;1738803;28;20731;-67
2022/10/01 04:47:14;;;;;;;0.00;0.00;;;;;;;;;;1736206;28;20230;-68
2022/10/01 04:48:05;;;;;;;0.00;0.00;;;;;;;;;;1735074;28;20726;-67
2022/10/01 04:48:59;;;;;;;0.00;0.00;;;;;;;;;;1739699;28;20203;-67
2022/10/01 04:49:50;;;;;;;0.00;0.00;;;;;;;;;;1739004;28;20206;-67
2022/10/01 04:50:43;;;;;;;0.00;0.00;;;;;;;;;;1740235;28;20191;-67
2022/10/01 04:51:34;;;;;;;0.00;0.00;;;;;;;;;;1738904;28;20207;-67
2022/10/01 04:52:26;;;;;;;0.00;0.00;;;;;;;;;;1739439;28;20203;-67
2022/10/01 04:53:17;;;;;;;0.00;0.00;;;;;;;;;;1737911;28;20207;-67
2022/10/01 04:54:09;;;;;;;0.00;0.00;;;;;;;;;;1739818;28;20218;-67
2022/10/01 04:55:00;;;;;;;0.00;0.00;;;;;;;;;;1738556;28;20321;-68
2022/10/01 04:55:52;;;;;;;0.00;0.00;;;;;;;;;;1740051;28;20708;-67
2022/10/01 04:56:43;;;;;;;0.00;0.00;;;;;;;;;;1739414;28;20899;-67
2022/10/01 04:57:35;;;;;;;0.00;0.00;;;;;;;;;;1739756;28;20218;-67
2022/10/01 04:58:26;;;;;;;0.00;0.00;;;;;;;;;;1738025;28;20211;-67
2022/10/01 04:59:18;;;;;;;0.00;0.00;;;;;;;;;;1737168;28;20222;-67
2022/10/01 05:00:10;;;;;;;0.00;0.00;;;;;;;;;;1738301;28;20242;-67
2022/10/01 05:01:03;;;;;;;0.00;0.00;;;;;;;;;;1739743;28;20293;-67
2022/10/01 05:01:54;;;;;;;0.00;0.00;;;;;;;;;;1738110;28;20297;-67
2022/10/01 05:02:46;;;;;;;0.00;0.00;;;;;;;;;;1739915;28;20317;-67
2022/10/01 05:03:37;;;;;;;0.00;0.00;;;;;;;;;;1738816;28;20214;-67
2022/10/01 05:04:31;;;;;;;0.00;0.00;;;;;;;;;;1738642;28;20264;-67
2022/10/01 05:05:23;;;;;;;0.00;0.00;;;;;;;;;;1736241;28;20274;-68
2022/10/01 05:06:15;;;;;;;0.00;0.00;;;;;;;;;;1738817;28;20286;-67
2022/10/01 05:07:06;;;;;;;0.00;0.00;;;;;;;;;;1739655;28;20294;-67
2022/10/01 05:07:58;;;;;;;0.00;0.00;;;;;;;;;;1737816;28;20203;-67
2022/10/01 05:08:50;;;;;;;0.00;0.00;;;;;;;;;;1739469;28;20245;-67
2022/10/01 05:09:42;;;;;;;0.00;0.00;;;;;;;;;;1738616;28;20198;-67
2022/10/01 05:10:34;;;;;;;0.00;0.00;;;;;;;;;;1740011;28;20248;-67
2022/10/01 05:11:26;;;;;;;0.00;0.00;;;;;;;;;;1738493;28;20209;-67
2022/10/01 05:12:17;;;;;;;0.00;0.00;;;;;;;;;;1739179;28;20203;-67
2022/10/01 05:13:10;;;;;;;0.00;0.00;;;;;;;;;;1738561;28;20704;-68
2022/10/01 05:14:01;;;;;;;0.00;0.00;;;;;;;;;;1739288;28;20684;-69
2022/10/01 05:14:54;;;;;;;0.00;0.00;;;;;;;;;;1738521;28;20234;-70
2022/10/01 05:15:47;;;;;;;0.00;0.00;;;;;;;;;;1740183;28;20238;-69
2022/10/01 05:16:39;;;;;;;0.00;0.00;;;;;;;;;;1737792;28;20611;-67
2022/10/01 05:17:31;;;;;;;0.00;0.00;;;;;;;;;;1739751;28;20539;-67
2022/10/01 05:18:24;;;;;;;0.00;0.00;;;;;;;;;;1738402;28;20629;-67